sensor_id;sensor_type;location;lat;lon;timestamp;pressure;altitude;pressure_sealevel;temperature;humidity
57376;BME280;44805;45.048;5.062;2022-10-22T00:13:54;99453.28;;;15.38;100.00
57376;BME280;44805;45.048;5.062;2022-10-22T01:11:26;99617.19;;;16.02;100.00
57376;BME280;44805;45.048;5.062;2022-10-22T03:22:40;99513.28;;;14.65;100.00
57376;BME280;44805;45.048;5.062;2022-10-22T03:25:26;99492.81;;;14.59;100.00
57376;BME280;44805;45.048;5.062;2022-10-22T03:28:01;99557.41;;;14.96;100.00
57376;BME280;44805;45.048;5.062;2022-10-22T03:30:57;99631.13;;;15.45;100.00
57376;BME280;44805;45.048;5.062;2022-10-22T03:33:43;99635.97;;;15.41;100.00
57376;BME280;44805;45.048;5.062;2022-10-22T03:36:11;99553.63;;;14.90;100.00
57376;BME280;44805;45.048;5.062;2022-10-22T03:38:37;99498.94;;;14.60;100.00
57376;BME280;44805;45.048;5.062;2022-10-22T03:41:38;99522.56;;;14.84;100.00
57376;BME280;44805;45.048;5.062;2022-10-22T03:44:05;99501.88;;;14.65;100.00
57376;BME280;44805;45.048;5.062;2022-10-22T03:46:33;99503.84;;;14.48;100.00
57376;BME280;44805;45.048;5.062;2022-10-22T03:49:14;99613.91;;;14.96;100.00
57376;BME280;44805;45.048;5.062;2022-10-22T03:51:47;99613.97;;;14.88;100.00
57376;BME280;44805;45.048;5.062;2022-10-22T03:54:16;99618.38;;;14.96;100.00
57376;BME280;44805;45.048;5.062;2022-10-22T03:56:48;99580.66;;;14.71;100.00
57376;BME280;44805;45.048;5.062;2022-10-22T03:59:14;99668.34;;;15.22;100.00
57376;BME280;44805;45.048;5.062;2022-10-22T04:01:42;99590.28;;;14.87;100.00
57376;BME280;44805;45.048;5.062;2022-10-22T04:04:07;99519.91;;;14.46;100.00
57376;BME280;44805;45.048;5.062;2022-10-22T04:07:01;99592.84;;;14.95;100.00
57376;BME280;44805;45.048;5.062;2022-10-22T04:09:49;99650.06;;;15.27;100.00
57376;BME280;44805;45.048;5.062;2022-10-22T04:12:41;99655.72;;;15.24;100.00
57376;BME280;44805;45.048;5.062;2022-10-22T04:15:15;99504.25;;;14.14;100.00
57376;BME280;44805;45.048;5.062;2022-10-22T04:21:20;99650.84;;;14.75;100.00
57376;BME280;44805;45.048;5.062;2022-10-22T04:24:29;99692.53;;;15.04;100.00
57376;BME280;44805;45.048;5.062;2022-10-22T04:27:24;99560.09;;;14.27;100.00
57376;BME280;44805;45.048;5.062;2022-10-22T04:29:53;99627.47;;;14.79;100.00
57376;BME280;44805;45.048;5.062;2022-10-22T04:32:24;99569.69;;;14.51;100.00
57376;BME280;44805;45.048;5.062;2022-10-22T04:38:12;99651.38;;;14.93;100.00
57376;BME280;44805;45.048;5.062;2022-10-22T04:40:37;99591.00;;;14.58;100.00
57376;BME280;44805;45.048;5.062;2022-10-22T04:43:06;99613.38;;;14.78;100.00
57376;BME280;44805;45.048;5.062;2022-10-22T04:45:35;99645.41;;;14.91;100.00
57376;BME280;44805;45.048;5.062;2022-10-22T04:51:23;99620.56;;;14.69;100.00
57376;BME280;44805;45.048;5.062;2022-10-22T04:54:10;99685.72;;;15.25;100.00
57376;BME280;44805;45.048;5.062;2022-10-22T04:56:38;99547.88;;;14.26;100.00
57376;BME280;44805;45.048;5.062;2022-10-22T04:59:06;99544.97;;;14.36;100.00
57376;BME280;44805;45.048;5.062;2022-10-22T05:01:43;99674.72;;;15.13;100.00
57376;BME280;44805;45.048;5.062;2022-10-22T05:04:16;99607.25;;;14.77;100.00
57376;BME280;44805;45.048;5.062;2022-10-22T05:07:01;99626.06;;;15.06;100.00
57376;BME280;44805;45.048;5.062;2022-10-22T05:09:29;99672.44;;;15.10;100.00
57376;BME280;44805;45.048;5.062;2022-10-22T05:12:01;99698.53;;;14.98;100.00
57376;BME280;44805;45.048;5.062;2022-10-22T05:14:27;99577.09;;;13.78;100.00
57376;BME280;44805;45.048;5.062;2022-10-22T05:16:53;99651.56;;;14.06;100.00
57376;BME280;44805;45.048;5.062;2022-10-22T05:19:25;99588.44;;;13.64;100.00
57376;BME280;44805;45.048;5.062;2022-10-22T05:21:57;99666.88;;;14.19;100.00
57376;BME280;44805;45.048;5.062;2022-10-22T05:24:24;99603.53;;;13.86;100.00
57376;BME280;44805;45.048;5.062;2022-10-22T05:26:51;99605.88;;;13.81;100.00
57376;BME280;44805;45.048;5.062;2022-10-22T06:14:05;99681.59;;;14.30;100.00
57376;BME280;44805;45.048;5.062;2022-10-22T06:16:36;99773.03;;;14.88;100.00
57376;BME280;44805;45.048;5.062;2022-10-22T06:19:10;99634.41;;;13.94;100.00
57376;BME280;44805;45.048;5.062;2022-10-22T06:21:36;99627.50;;;13.93;100.00
57376;BME280;44805;45.048;5.062;2022-10-22T06:24:02;99691.25;;;14.46;100.00
57376;BME280;44805;45.048;5.062;2022-10-22T06:26:28;99718.75;;;14.76;100.00
57376;BME280;44805;45.048;5.062;2022-10-22T06:28:55;99632.38;;;14.13;100.00
57376;BME280;44805;45.048;5.062;2022-10-22T06:31:22;99640.00;;;14.07;100.00
57376;BME280;44805;45.048;5.062;2022-10-22T06:33:47;99640.66;;;14.09;100.00
57376;BME280;44805;45.048;5.062;2022-10-22T06:36:26;99683.28;;;14.23;100.00
57376;BME280;44805;45.048;5.062;2022-10-22T06:42:23;99666.47;;;14.39;100.00
57376;BME280;44805;45.048;5.062;2022-10-22T06:44:51;99748.84;;;14.83;100.00
57376;BME280;44805;45.048;5.062;2022-10-22T06:54:24;99799.47;;;15.19;100.00
57376;BME280;44805;45.048;5.062;2022-10-22T06:57:22;99798.94;;;15.47;100.00
57376;BME280;44805;45.048;5.062;2022-10-22T07:10:07;99805.63;;;15.81;100.00
57376;BME280;44805;45.048;5.062;2022-10-22T07:13:12;99809.03;;;15.67;100.00
57376;BME280;44805;45.048;5.062;2022-10-22T07:15:59;99810.72;;;15.68;100.00
57376;BME280;44805;45.048;5.062;2022-10-22T07:18:27;99737.66;;;15.19;100.00
57376;BME280;44805;45.048;5.062;2022-10-22T07:21:11;99726.78;;;15.14;100.00
57376;BME280;44805;45.048;5.062;2022-10-22T07:23:40;99762.75;;;15.31;100.00
57376;BME280;44805;45.048;5.062;2022-10-22T07:26:08;99806.00;;;15.55;100.00
57376;BME280;44805;45.048;5.062;2022-10-22T07:28:36;99677.69;;;14.72;100.00
57376;BME280;44805;45.048;5.062;2022-10-22T07:31:05;99824.22;;;15.58;100.00
57376;BME280;44805;45.048;5.062;2022-10-22T07:33:31;99826.34;;;15.62;100.00
57376;BME280;44805;45.048;5.062;2022-10-22T07:35:58;99770.41;;;15.26;100.00
57376;BME280;44805;45.048;5.062;2022-10-22T07:38:29;99774.78;;;15.19;100.00
57376;BME280;44805;45.048;5.062;2022-10-22T07:41:01;99688.38;;;14.64;100.00
57376;BME280;44805;45.048;5.062;2022-10-22T07:43:27;99705.38;;;14.69;100.00
57376;BME280;44805;45.048;5.062;2022-10-22T07:45:59;99745.94;;;15.01;100.00
57376;BME280;44805;45.048;5.062;2022-10-22T07:48:34;99728.41;;;14.92;100.00
57376;BME280;44805;45.048;5.062;2022-10-22T07:51:02;99663.66;;;14.40;100.00
57376;BME280;44805;45.048;5.062;2022-10-22T07:53:31;99757.00;;;15.05;100.00
57376;BME280;44805;45.048;5.062;2022-10-22T07:56:03;99832.63;;;15.61;100.00
57376;BME280;44805;45.048;5.062;2022-10-22T07:58:38;99776.38;;;15.28;100.00
57376;BME280;44805;45.048;5.062;2022-10-22T08:01:04;99781.50;;;15.30;100.00
57376;BME280;44805;45.048;5.062;2022-10-22T08:06:42;99711.03;;;14.89;100.00
57376;BME280;44805;45.048;5.062;2022-10-22T08:09:07;99759.22;;;15.16;100.00
57376;BME280;44805;45.048;5.062;2022-10-22T08:11:41;99814.97;;;15.54;100.00
57376;BME280;44805;45.048;5.062;2022-10-22T08:14:07;99784.09;;;15.38;100.00
57376;BME280;44805;45.048;5.062;2022-10-22T08:16:32;99742.19;;;15.10;100.00
57376;BME280;44805;45.048;5.062;2022-10-22T08:22:35;99778.84;;;15.30;100.00
57376;BME280;44805;45.048;5.062;2022-10-22T08:25:00;99874.41;;;15.91;100.00
57376;BME280;44805;45.048;5.062;2022-10-22T08:27:28;99762.13;;;15.29;100.00
57376;BME280;44805;45.048;5.062;2022-10-22T08:29:54;99787.38;;;15.40;100.00
57376;BME280;44805;45.048;5.062;2022-10-22T08:32:20;99782.31;;;15.30;100.00
57376;BME280;44805;45.048;5.062;2022-10-22T08:35:10;99870.97;;;15.82;100.00
57376;BME280;44805;45.048;5.062;2022-10-22T08:37:36;99822.56;;;15.57;100.00
57376;BME280;44805;45.048;5.062;2022-10-22T08:40:03;99736.78;;;15.04;100.00
57376;BME280;44805;45.048;5.062;2022-10-22T08:42:40;99793.97;;;15.44;100.00
57376;BME280;44805;45.048;5.062;2022-10-22T08:48:06;99864.00;;;16.04;100.00
57376;BME280;44805;45.048;5.062;2022-10-22T08:50:44;99822.28;;;15.90;100.00
57376;BME280;44805;45.048;5.062;2022-10-22T08:53:19;99779.34;;;15.71;100.00
57376;BME280;44805;45.048;5.062;2022-10-22T08:55:46;99876.09;;;16.21;100.00
57376;BME280;44805;45.048;5.062;2022-10-22T09:01:10;99877.31;;;16.19;100.00
57376;BME280;44805;45.048;5.062;2022-10-22T09:03:53;99878.00;;;16.13;100.00
57376;BME280;44805;45.048;5.062;2022-10-22T09:06:29;99795.31;;;15.63;100.00
57376;BME280;44805;45.048;5.062;2022-10-22T09:09:00;99733.03;;;15.36;100.00
57376;BME280;44805;45.048;5.062;2022-10-22T09:11:32;99880.69;;;16.27;100.00
57376;BME280;44805;45.048;5.062;2022-10-22T09:14:08;99819.31;;;15.93;100.00
57376;BME280;44805;45.048;5.062;2022-10-22T09:16:47;99873.09;;;16.39;100.00
57376;BME280;44805;45.048;5.062;2022-10-22T09:22:39;99877.56;;;16.68;100.00
57376;BME280;44805;45.048;5.062;2022-10-22T09:25:16;99833.41;;;16.38;100.00
57376;BME280;44805;45.048;5.062;2022-10-22T09:27:48;99816.56;;;16.16;100.00
57376;BME280;44805;45.048;5.062;2022-10-22T09:30:19;99811.81;;;16.11;100.00
57376;BME280;44805;45.048;5.062;2022-10-22T09:35:56;99886.47;;;16.90;100.00
57376;BME280;44805;45.048;5.062;2022-10-22T09:38:26;99843.84;;;16.69;100.00
57376;BME280;44805;45.048;5.062;2022-10-22T09:42:19;99765.63;;;16.42;100.00
57376;BME280;44805;45.048;5.062;2022-10-22T09:44:33;99886.72;;;17.10;100.00
57376;BME280;44805;45.048;5.062;2022-10-22T09:47:30;99770.69;;;16.58;100.00
57376;BME280;44805;45.048;5.062;2022-10-22T09:56:45;99823.25;;;17.07;100.00
57376;BME280;44805;45.048;5.062;2022-10-22T09:59:17;99831.09;;;17.16;100.00
57376;BME280;44805;45.048;5.062;2022-10-22T10:01:55;99825.66;;;17.24;100.00
57376;BME280;44805;45.048;5.062;2022-10-22T10:04:21;99824.88;;;17.30;100.00
57376;BME280;44805;45.048;5.062;2022-10-22T10:07:00;99779.41;;;17.03;100.00
57376;BME280;44805;45.048;5.062;2022-10-22T10:13:29;99761.94;;;17.16;100.00
57376;BME280;44805;45.048;5.062;2022-10-22T10:41:05;99877.09;;;19.00;91.83
57376;BME280;44805;45.048;5.062;2022-10-22T10:43:54;99875.88;;;19.02;91.60
57376;BME280;44805;45.048;5.062;2022-10-22T10:50:14;99893.06;;;18.86;90.70
57376;BME280;44805;45.048;5.062;2022-10-22T10:53:06;99802.34;;;18.38;92.10
57376;BME280;44805;45.048;5.062;2022-10-22T10:56:03;99871.16;;;18.98;91.66
57376;BME280;44805;45.048;5.062;2022-10-22T11:02:09;99757.34;;;18.15;92.46
57376;BME280;44805;45.048;5.062;2022-10-22T11:11:19;99831.94;;;18.92;92.68
57376;BME280;44805;45.048;5.062;2022-10-22T11:16:37;99722.13;;;18.20;92.25
57376;BME280;44805;45.048;5.062;2022-10-22T11:22:53;99730.56;;;18.30;93.18
57376;BME280;44805;45.048;5.062;2022-10-22T11:26:00;99753.63;;;18.58;93.75
57376;BME280;44805;45.048;5.062;2022-10-22T11:28:45;99766.66;;;18.81;90.48
57376;BME280;44805;45.048;5.062;2022-10-22T11:50:21;99690.44;;;18.52;92.43
57376;BME280;44805;45.048;5.062;2022-10-22T11:53:16;99805.56;;;19.37;92.27
57376;BME280;44805;45.048;5.062;2022-10-22T12:08:22;99813.97;;;19.47;89.76
57376;BME280;44805;45.048;5.062;2022-10-22T12:14:44;99799.81;;;19.60;87.56
57376;BME280;44805;45.048;5.062;2022-10-22T12:20:32;99794.28;;;19.75;88.62
57376;BME280;44805;45.048;5.062;2022-10-22T12:24:02;99670.66;;;19.01;86.54
57376;BME280;44805;45.048;5.062;2022-10-22T12:29:57;99772.66;;;19.56;90.95
57376;BME280;44805;45.048;5.062;2022-10-22T12:35:26;99652.97;;;18.86;90.56
57376;BME280;44805;45.048;5.062;2022-10-22T12:38:36;99624.22;;;18.55;91.40
57376;BME280;44805;45.048;5.062;2022-10-22T12:41:19;99638.38;;;18.69;90.82
57376;BME280;44805;45.048;5.062;2022-10-22T12:44:24;99705.72;;;19.38;91.00
57376;BME280;44805;45.048;5.062;2022-10-22T12:47:21;99708.38;;;19.78;88.22
57376;BME280;44805;45.048;5.062;2022-10-22T12:49:56;99643.72;;;19.36;88.31
57376;BME280;44805;45.048;5.062;2022-10-22T12:52:32;99747.16;;;20.00;85.80
57376;BME280;44805;45.048;5.062;2022-10-22T12:55:31;99616.06;;;19.03;87.27
57376;BME280;44805;45.048;5.062;2022-10-22T12:58:06;99744.50;;;19.87;90.47
57376;BME280;44805;45.048;5.062;2022-10-22T13:00:44;99604.13;;;19.06;87.36
57376;BME280;44805;45.048;5.062;2022-10-22T13:04:02;99593.06;;;18.96;88.39
57376;BME280;44805;45.048;5.062;2022-10-22T13:07:02;99685.38;;;19.43;90.26
57376;BME280;44805;45.048;5.062;2022-10-22T13:09:43;99732.56;;;19.96;88.16
57376;BME280;44805;45.048;5.062;2022-10-22T13:12:14;99639.38;;;19.55;83.67
57376;BME280;44805;45.048;5.062;2022-10-22T13:24:20;99560.75;;;19.30;86.36
57376;BME280;44805;45.048;5.062;2022-10-22T13:27:08;99693.06;;;20.11;83.58
57376;BME280;44805;45.048;5.062;2022-10-22T13:29:40;99617.56;;;19.78;81.57
57376;BME280;44805;45.048;5.062;2022-10-22T13:32:31;99643.59;;;19.89;81.73
57376;BME280;44805;45.048;5.062;2022-10-22T13:49:01;99586.41;;;19.38;86.39
57376;BME280;44805;45.048;5.062;2022-10-22T13:52:10;99668.88;;;19.93;86.08
57376;BME280;44805;45.048;5.062;2022-10-22T13:54:55;99604.22;;;19.64;84.46
57376;BME280;44805;45.048;5.062;2022-10-22T13:58:03;99572.00;;;19.46;85.46
57376;BME280;44805;45.048;5.062;2022-10-22T14:01:39;99513.38;;;19.13;86.41
57376;BME280;44805;45.048;5.062;2022-10-22T14:04:28;99507.41;;;19.17;89.38
57376;BME280;44805;45.048;5.062;2022-10-22T20:48:13;99704.03;;;15.34;100.00
57376;BME280;44805;45.048;5.062;2022-10-22T20:51:21;99601.31;;;14.75;100.00
57376;BME280;44805;45.048;5.062;2022-10-22T20:54:23;99689.84;;;15.27;100.00
57376;BME280;44805;45.048;5.062;2022-10-22T21:11:14;99608.75;;;14.57;100.00
57376;BME280;44805;45.048;5.062;2022-10-22T22:34:12;99782.19;;;15.01;100.00
